createdAt,value
2022-11-13T00:01:19.337Z,3.90
2022-11-13T00:04:04.618Z,3.80
2022-11-13T00:06:51.605Z,3.80
2022-11-13T00:09:40.155Z,3.80
2022-11-13T00:12:25.333Z,3.80
2022-11-13T00:15:10.612Z,3.80
2022-11-13T00:17:55.692Z,3.80
2022-11-13T00:20:40.970Z,3.60
2022-11-13T00:23:26.189Z,3.70
2022-11-13T00:26:15.620Z,3.70
2022-11-13T00:29:02.420Z,3.70
2022-11-13T00:31:47.744Z,3.70
2022-11-13T00:34:47.036Z,3.70
2022-11-13T00:37:33.698Z,3.60
2022-11-13T00:40:18.870Z,3.60
2022-11-13T00:43:04.095Z,3.60
2022-11-13T00:45:49.329Z,3.60
2022-11-13T00:48:34.967Z,3.60
2022-11-13T00:51:20.148Z,3.70
2022-11-13T00:54:05.382Z,3.70
2022-11-13T00:56:51.700Z,3.60
2022-11-13T00:59:37.214Z,3.60
2022-11-13T01:02:22.975Z,3.70
2022-11-13T01:05:08.661Z,3.60
2022-11-13T01:07:54.161Z,3.60
2022-11-13T01:10:41.404Z,3.60
2022-11-13T01:13:26.809Z,3.60
2022-11-13T01:16:12.528Z,3.60
2022-11-13T01:18:57.756Z,3.60
2022-11-13T01:21:42.929Z,3.70
2022-11-13T01:24:28.115Z,3.60
2022-11-13T01:27:15.362Z,3.50
2022-11-13T01:30:00.367Z,3.50
2022-11-13T01:32:45.378Z,3.40
2022-11-13T01:35:30.640Z,3.30
2022-11-13T01:38:15.791Z,3.20
2022-11-13T01:41:00.979Z,3.40
2022-11-13T01:43:46.477Z,3.10
2022-11-13T01:46:31.648Z,3.00
2022-11-13T01:49:25.908Z,3.00
2022-11-13T01:52:13.235Z,3.00
2022-11-13T01:55:03.982Z,2.90
2022-11-13T01:57:49.321Z,3.00
2022-11-13T02:00:34.767Z,3.00
2022-11-13T02:03:20.058Z,3.20
2022-11-13T02:06:05.566Z,3.00
2022-11-13T02:08:51.762Z,3.10
2022-11-13T02:11:37.878Z,3.00
2022-11-13T02:14:25.267Z,2.90
2022-11-13T02:17:13.347Z,2.90
2022-11-13T02:20:00.410Z,2.90
2022-11-13T02:22:51.935Z,2.80
2022-11-13T02:25:38.243Z,2.90
2022-11-13T02:28:23.619Z,2.90
2022-11-13T02:31:10.161Z,2.90
2022-11-13T02:33:55.746Z,2.90
2022-11-13T02:36:40.786Z,2.80
2022-11-13T02:39:25.933Z,2.80
2022-11-13T02:42:11.003Z,2.70
2022-11-13T02:44:56.230Z,2.70
2022-11-13T02:47:41.456Z,2.60
2022-11-13T02:50:26.649Z,2.50
2022-11-13T02:53:12.076Z,2.50
2022-11-13T02:55:57.024Z,2.40
2022-11-13T02:58:42.383Z,2.40
2022-11-13T03:01:27.946Z,2.40
2022-11-13T03:04:13.501Z,2.40
2022-11-13T03:06:58.806Z,2.40
2022-11-13T03:09:44.328Z,2.40
2022-11-13T03:12:29.554Z,2.40
2022-11-13T03:15:15.898Z,2.40
2022-11-13T03:18:05.477Z,2.40
2022-11-13T03:20:53.920Z,2.40
2022-11-13T03:23:40.124Z,2.30
2022-11-13T03:26:27.852Z,2.20
2022-11-13T03:29:12.895Z,2.20
2022-11-13T03:31:58.206Z,2.20
2022-11-13T03:34:43.265Z,2.10
2022-11-13T03:37:28.442Z,2.10
2022-11-13T03:40:13.509Z,2.10
2022-11-13T03:42:58.705Z,2.20
2022-11-13T03:45:47.358Z,2.20
2022-11-13T03:48:32.743Z,2.30
2022-11-13T03:51:18.241Z,2.40
2022-11-13T03:54:03.619Z,2.40
2022-11-13T03:56:48.910Z,2.40
2022-11-13T03:59:34.015Z,2.50
2022-11-13T04:02:19.180Z,2.60
2022-11-13T04:05:04.606Z,2.50
2022-11-13T04:07:49.968Z,2.60
2022-11-13T04:10:35.828Z,2.60
2022-11-13T04:13:21.048Z,2.60
2022-11-13T04:16:06.135Z,2.70
2022-11-13T04:18:51.605Z,2.70
2022-11-13T04:21:36.648Z,2.70
2022-11-13T04:24:21.809Z,2.70
2022-11-13T04:27:06.977Z,2.80
2022-11-13T04:29:52.337Z,2.80
2022-11-13T04:32:37.589Z,2.90
2022-11-13T04:35:22.636Z,3.10
2022-11-13T04:38:08.140Z,3.40
2022-11-13T04:41:13.450Z,3.70
2022-11-13T04:43:58.953Z,3.50
2022-11-13T04:46:44.233Z,3.50
2022-11-13T04:49:29.382Z,3.40
2022-11-13T04:52:14.818Z,3.30
2022-11-13T04:55:00.348Z,3.40
2022-11-13T04:57:45.548Z,3.30
2022-11-13T05:00:30.751Z,3.10
2022-11-13T05:03:15.777Z,3.00
2022-11-13T05:06:02.321Z,3.00
2022-11-13T05:08:47.775Z,2.90
2022-11-13T05:11:32.744Z,2.80
2022-11-13T05:14:18.041Z,2.70
2022-11-13T05:17:03.483Z,2.60
2022-11-13T05:19:48.750Z,2.40
2022-11-13T05:22:33.872Z,2.40
2022-11-13T05:25:19.186Z,2.30
2022-11-13T05:28:04.478Z,2.30
2022-11-13T05:30:49.621Z,2.20
2022-11-13T05:33:35.400Z,2.30
2022-11-13T05:36:21.068Z,2.20
2022-11-13T05:39:06.540Z,2.10
2022-11-13T05:41:51.643Z,2.10
2022-11-13T05:44:36.742Z,2.00
2022-11-13T05:47:22.089Z,1.90
2022-11-13T05:50:07.324Z,1.80
2022-11-13T05:52:52.838Z,1.70
2022-11-13T05:55:37.944Z,1.70
2022-11-13T05:58:23.125Z,1.70
2022-11-13T06:01:19.117Z,1.60
2022-11-13T06:04:05.202Z,1.50
2022-11-13T06:06:50.603Z,1.40
2022-11-13T06:09:36.305Z,1.40
2022-11-13T06:12:21.469Z,1.40
2022-11-13T06:15:06.817Z,1.30
2022-11-13T06:17:52.383Z,1.40
2022-11-13T06:20:37.478Z,1.30
2022-11-13T06:23:22.692Z,1.30
2022-11-13T06:26:09.039Z,1.30
2022-11-13T06:28:54.562Z,1.30
2022-11-13T06:31:40.139Z,1.30
2022-11-13T06:34:25.912Z,1.30
2022-11-13T06:37:10.798Z,1.20
2022-11-13T06:39:56.060Z,1.20
2022-11-13T06:42:41.365Z,1.20
2022-11-13T06:45:26.675Z,1.20
2022-11-13T06:48:11.756Z,1.10
2022-11-13T06:51:00.647Z,1.30
2022-11-13T06:53:46.235Z,1.20
2022-11-13T06:56:31.396Z,1.30
2022-11-13T06:59:16.626Z,1.40
2022-11-13T07:02:01.828Z,1.40
2022-11-13T07:04:48.315Z,1.50
2022-11-13T07:07:34.141Z,1.40
2022-11-13T07:10:28.290Z,1.50
2022-11-13T07:13:13.619Z,1.50
2022-11-13T07:16:09.450Z,1.60
2022-11-13T07:19:01.308Z,1.70
2022-11-13T07:21:47.139Z,1.70
2022-11-13T07:24:35.821Z,1.80
2022-11-13T07:27:21.331Z,1.90
2022-11-13T07:30:07.427Z,1.90
2022-11-13T07:32:55.772Z,2.00
2022-11-13T07:35:40.887Z,2.10
2022-11-13T07:38:27.560Z,2.20
2022-11-13T07:41:12.865Z,2.30
2022-11-13T07:43:57.884Z,2.40
2022-11-13T07:46:43.053Z,2.40
2022-11-13T07:49:28.638Z,2.60
2022-11-13T07:52:13.815Z,2.70
2022-11-13T07:54:58.959Z,2.80
2022-11-13T07:57:44.083Z,2.90
2022-11-13T08:00:30.069Z,3.10
2022-11-13T08:03:16.358Z,3.40
2022-11-13T08:06:06.137Z,3.70
2022-11-13T08:08:51.402Z,4.00
2022-11-13T08:11:36.920Z,4.20
2022-11-13T08:14:22.016Z,4.30
2022-11-13T08:17:07.279Z,4.50
2022-11-13T08:19:52.407Z,4.60
2022-11-13T08:22:37.744Z,4.80
2022-11-13T08:25:23.381Z,5.00
2022-11-13T08:28:12.841Z,5.00
2022-11-13T08:30:59.287Z,5.10
2022-11-13T08:33:44.522Z,5.20
2022-11-13T08:36:30.116Z,5.40
2022-11-13T08:39:15.536Z,5.50
2022-11-13T08:42:00.543Z,5.70
2022-11-13T08:44:45.774Z,6.10
2022-11-13T08:47:30.801Z,6.20
2022-11-13T08:50:15.873Z,6.50
2022-11-13T08:53:01.370Z,6.70
2022-11-13T08:55:46.629Z,7.10
2022-11-13T08:58:32.671Z,7.10
2022-11-13T09:01:17.994Z,7.30
2022-11-13T09:04:03.194Z,7.60
2022-11-13T09:06:48.359Z,7.90
2022-11-13T09:09:34.476Z,7.90
2022-11-13T09:12:19.741Z,7.90
2022-11-13T09:15:05.435Z,8.00
2022-11-13T09:17:51.123Z,8.20
2022-11-13T09:20:36.527Z,8.30
2022-11-13T09:23:21.709Z,8.40
2022-11-13T09:26:06.974Z,8.70
2022-11-13T09:28:52.098Z,8.80
2022-11-13T09:31:40.908Z,9.10
2022-11-13T09:34:27.492Z,9.40
2022-11-13T09:37:14.331Z,9.30
2022-11-13T09:39:59.808Z,9.10
2022-11-13T09:42:45.403Z,9.30
2022-11-13T09:45:31.476Z,9.40
2022-11-13T09:48:35.710Z,9.70
2022-11-13T09:51:31.274Z,10.00
2022-11-13T09:54:17.538Z,10.10
2022-11-13T09:57:28.060Z,10.50
2022-11-13T10:00:15.339Z,10.70
2022-11-13T10:03:46.194Z,10.70
2022-11-13T10:06:40.571Z,10.80
2022-11-13T10:09:36.679Z,10.90
2022-11-13T10:12:22.138Z,10.90
2022-11-13T10:15:08.907Z,11.10
2022-11-13T10:18:05.351Z,11.30
2022-11-13T10:20:57.841Z,11.10
2022-11-13T10:23:44.494Z,11.40
2022-11-13T10:26:30.078Z,11.50
2022-11-13T10:29:16.381Z,11.70
2022-11-13T10:32:20.003Z,11.70
2022-11-13T10:35:05.372Z,11.90
2022-11-13T10:38:03.364Z,12.20
2022-11-13T10:41:03.443Z,12.40
2022-11-13T10:43:52.111Z,12.40
2022-11-13T10:46:37.548Z,12.40
2022-11-13T10:49:26.318Z,12.60
2022-11-13T10:52:28.194Z,12.40
2022-11-13T10:55:16.321Z,12.60
2022-11-13T10:58:02.678Z,12.60
2022-11-13T11:00:49.794Z,12.60
2022-11-13T11:03:35.202Z,12.70
2022-11-13T11:06:20.394Z,12.90
2022-11-13T11:09:32.007Z,13.00
2022-11-13T11:12:30.191Z,12.90
2022-11-13T11:15:20.672Z,13.00
2022-11-13T11:18:10.211Z,13.10
2022-11-13T11:20:58.244Z,13.30
2022-11-13T11:24:02.461Z,13.70
2022-11-13T11:26:50.945Z,13.70
2022-11-13T11:29:55.442Z,13.70
2022-11-13T11:32:46.796Z,13.80
2022-11-13T11:35:40.262Z,13.90
2022-11-13T11:38:45.992Z,13.60
2022-11-13T11:41:43.268Z,13.70
2022-11-13T11:44:35.161Z,13.90
2022-11-13T11:47:20.635Z,14.20
2022-11-13T11:50:11.767Z,14.10
2022-11-13T11:55:27.932Z,14.20
2022-11-13T11:58:22.849Z,14.70
2022-11-13T12:01:37.215Z,14.40
2022-11-13T12:05:03.750Z,14.40
2022-11-13T12:07:52.422Z,14.60
2022-11-13T12:10:55.427Z,15.00
2022-11-13T12:13:50.438Z,14.80
2022-11-13T12:17:00.219Z,14.90
2022-11-13T12:19:54.804Z,14.70
2022-11-13T12:22:49.941Z,14.90
2022-11-13T12:25:44.646Z,15.00
2022-11-13T12:28:41.262Z,15.30
2022-11-13T12:31:51.411Z,15.50
2022-11-13T12:34:49.604Z,15.60
2022-11-13T12:38:10.609Z,15.50
2022-11-13T12:41:14.317Z,15.70
2022-11-13T12:44:07.911Z,16.00
2022-11-13T12:46:54.651Z,16.70
2022-11-13T12:49:40.417Z,16.70
2022-11-13T12:52:25.577Z,16.90
2022-11-13T12:55:27.460Z,16.50
2022-11-13T12:58:26.622Z,16.60
2022-11-13T13:01:12.446Z,17.00
2022-11-13T13:04:29.544Z,16.60
2022-11-13T13:07:45.317Z,17.60
2022-11-13T13:10:59.969Z,18.50
2022-11-13T13:14:01.534Z,17.80
2022-11-13T13:16:47.050Z,17.90
2022-11-13T13:19:33.834Z,17.40
2022-11-13T13:22:29.752Z,16.60
2022-11-13T13:25:33.666Z,16.00
2022-11-13T13:28:23.740Z,15.90
2022-11-13T13:31:34.595Z,15.80
2022-11-13T13:35:00.328Z,15.60
2022-11-13T13:38:10.899Z,15.50
2022-11-13T13:41:17.350Z,15.20
2022-11-13T13:44:44.420Z,15.20
2022-11-13T13:47:35.339Z,15.40
2022-11-13T13:50:24.183Z,15.20
2022-11-13T13:53:14.415Z,15.30
2022-11-13T13:56:03.339Z,15.80
2022-11-13T13:58:49.177Z,15.20
2022-11-13T14:01:35.363Z,15.30
2022-11-13T14:04:23.387Z,15.10
2022-11-13T14:07:26.839Z,16.20
2022-11-13T14:10:13.880Z,15.90
2022-11-13T14:12:59.044Z,15.50
2022-11-13T14:15:44.565Z,15.10
2022-11-13T14:18:30.409Z,15.10
2022-11-13T14:21:21.010Z,14.30
2022-11-13T14:24:14.042Z,14.40
2022-11-13T14:27:01.790Z,14.30
2022-11-13T14:29:50.261Z,14.40
2022-11-13T14:32:45.739Z,14.40
2022-11-13T14:35:32.422Z,14.60
2022-11-13T14:38:21.662Z,14.20
2022-11-13T14:41:07.577Z,14.40
2022-11-13T14:43:53.296Z,13.70
2022-11-13T14:46:45.907Z,13.00
2022-11-13T14:49:37.206Z,12.80
2022-11-13T14:52:27.758Z,12.40
2022-11-13T14:55:28.578Z,12.00
2022-11-13T14:58:14.774Z,11.50
2022-11-13T15:01:19.184Z,11.20
2022-11-13T15:04:05.291Z,10.60
2022-11-13T15:06:55.428Z,10.40
2022-11-13T15:09:40.763Z,10.30
2022-11-13T15:12:26.351Z,10.00
2022-11-13T15:15:18.918Z,9.70
2022-11-13T15:18:05.348Z,9.50
2022-11-13T15:20:50.518Z,9.30
2022-11-13T15:23:36.011Z,9.10
2022-11-13T15:26:21.627Z,9.10
2022-11-13T15:29:07.674Z,9.10
2022-11-13T15:31:52.975Z,8.90
2022-11-13T15:34:38.292Z,8.80
2022-11-13T15:37:23.684Z,8.60
2022-11-13T15:40:09.449Z,8.60
2022-11-13T15:42:55.304Z,8.70
2022-11-13T15:45:44.152Z,8.70
2022-11-13T15:48:30.387Z,8.60
2022-11-13T15:51:33.450Z,8.30
2022-11-13T15:54:26.451Z,8.20
2022-11-13T15:57:22.000Z,8.10
2022-11-13T16:00:14.788Z,7.90
2022-11-13T16:03:00.286Z,7.80
2022-11-13T16:05:45.594Z,7.80
2022-11-13T16:08:30.971Z,7.70
2022-11-13T16:11:18.264Z,7.70
2022-11-13T16:14:03.460Z,7.70
2022-11-13T16:16:50.523Z,7.60
2022-11-13T16:19:37.289Z,7.60
2022-11-13T16:22:27.047Z,7.60
2022-11-13T16:25:19.568Z,7.60
2022-11-13T16:28:06.440Z,7.50
2022-11-13T16:30:51.855Z,7.50
2022-11-13T16:33:37.351Z,7.50
2022-11-13T16:36:22.777Z,7.60
2022-11-13T16:39:16.878Z,7.50
2022-11-13T16:42:02.324Z,7.40
2022-11-13T16:44:47.388Z,7.30
2022-11-13T16:47:32.770Z,7.20
2022-11-13T16:50:22.777Z,7.10
2022-11-13T16:53:10.235Z,7.10
2022-11-13T16:55:55.704Z,7.10
2022-11-13T16:58:41.672Z,7.10
2022-11-13T17:01:27.085Z,6.90
2022-11-13T17:04:15.476Z,6.90
2022-11-13T17:07:00.907Z,6.80
2022-11-13T17:09:46.482Z,6.60
2022-11-13T17:12:31.995Z,6.60
2022-11-13T17:15:17.821Z,6.60
2022-11-13T17:18:02.995Z,6.50
2022-11-13T17:20:52.499Z,6.50
2022-11-13T17:23:38.207Z,6.50
2022-11-13T17:26:25.295Z,6.50
2022-11-13T17:29:10.627Z,6.40
2022-11-13T17:31:56.196Z,6.40
2022-11-13T17:34:43.313Z,6.40
2022-11-13T17:37:28.715Z,6.40
2022-11-13T17:40:14.270Z,6.40
2022-11-13T17:42:59.506Z,6.40
2022-11-13T17:45:51.989Z,6.40
2022-11-13T17:48:37.711Z,6.40
2022-11-13T17:51:22.818Z,6.30
2022-11-13T17:54:08.170Z,6.10
2022-11-13T17:56:53.707Z,6.00
2022-11-13T17:59:39.084Z,5.90
2022-11-13T18:02:24.745Z,5.80
2022-11-13T18:05:10.502Z,5.80
2022-11-13T18:07:55.721Z,5.70
2022-11-13T18:10:42.425Z,5.70
2022-11-13T18:13:28.175Z,5.60
2022-11-13T18:16:22.238Z,5.60
2022-11-13T18:19:09.224Z,5.70
2022-11-13T18:21:54.892Z,5.80
2022-11-13T18:24:40.377Z,5.90
2022-11-13T18:27:25.698Z,5.90
2022-11-13T18:30:11.458Z,6.00
2022-11-13T18:32:56.634Z,6.00
2022-11-13T18:35:42.177Z,6.10
2022-11-13T18:38:28.624Z,6.20
2022-11-13T18:41:19.010Z,6.20
2022-11-13T18:44:04.305Z,6.20
2022-11-13T18:46:49.679Z,6.30
2022-11-13T18:49:35.229Z,6.30
2022-11-13T18:52:20.799Z,6.30
2022-11-13T18:55:06.663Z,6.30
2022-11-13T18:57:52.178Z,6.40
2022-11-13T19:00:37.573Z,6.40
2022-11-13T19:03:24.472Z,6.40
2022-11-13T19:06:12.661Z,6.40
2022-11-13T19:09:00.158Z,6.40
2022-11-13T19:11:45.486Z,6.40
2022-11-13T19:14:31.029Z,6.50
2022-11-13T19:17:16.391Z,6.50
2022-11-13T19:20:01.888Z,6.50
2022-11-13T19:22:47.242Z,6.50
2022-11-13T19:25:32.534Z,6.50
2022-11-13T19:28:17.981Z,6.50
2022-11-13T19:31:11.536Z,6.50
2022-11-13T19:34:01.908Z,6.50
2022-11-13T19:36:49.357Z,6.50
2022-11-13T19:39:35.251Z,6.50
2022-11-13T19:42:20.659Z,6.60
2022-11-13T19:45:06.549Z,6.60
2022-11-13T19:47:52.128Z,6.60
2022-11-13T19:50:37.479Z,6.50
2022-11-13T19:53:22.947Z,6.50
2022-11-13T19:56:08.757Z,6.50
2022-11-13T19:58:54.083Z,6.50
2022-11-13T20:01:39.895Z,6.50
2022-11-13T20:04:25.242Z,6.40
2022-11-13T20:07:11.425Z,6.30
2022-11-13T20:09:56.969Z,6.30
2022-11-13T20:12:42.378Z,6.40
2022-11-13T20:15:27.955Z,6.30
2022-11-13T20:18:14.355Z,6.30
2022-11-13T20:21:00.286Z,6.40
2022-11-13T20:23:45.848Z,6.30
2022-11-13T20:26:31.261Z,6.30
2022-11-13T20:29:16.742Z,6.30
2022-11-13T20:32:02.043Z,6.20
2022-11-13T20:34:47.581Z,6.30
2022-11-13T20:37:34.022Z,6.30
2022-11-13T20:40:19.430Z,6.30
2022-11-13T20:43:04.802Z,6.40
2022-11-13T20:45:50.515Z,6.40
2022-11-13T20:48:36.426Z,6.40
2022-11-13T20:51:25.116Z,6.30
2022-11-13T20:54:10.521Z,6.30
2022-11-13T20:56:55.935Z,6.30
2022-11-13T20:59:41.240Z,6.30
2022-11-13T21:02:26.613Z,6.30
2022-11-13T21:05:12.149Z,6.30
2022-11-13T21:07:57.472Z,6.40
2022-11-13T21:10:43.116Z,6.30
2022-11-13T21:13:28.860Z,6.30
2022-11-13T21:16:14.050Z,6.20
2022-11-13T21:19:00.099Z,6.10
2022-11-13T21:21:45.118Z,6.10
2022-11-13T21:24:30.464Z,6.10
2022-11-13T21:27:15.868Z,6.10
2022-11-13T21:30:01.371Z,5.90
2022-11-13T21:32:46.908Z,5.90
2022-11-13T21:35:32.300Z,5.90
2022-11-13T21:38:17.828Z,5.80
2022-11-13T21:41:24.896Z,5.80
2022-11-13T21:44:10.828Z,5.80
2022-11-13T21:46:56.255Z,5.80
2022-11-13T21:49:41.961Z,5.70
2022-11-13T21:52:27.192Z,5.70
2022-11-13T21:55:12.711Z,5.70
2022-11-13T21:57:58.154Z,5.70
2022-11-13T22:00:44.331Z,5.60
2022-11-13T22:03:29.788Z,5.60
2022-11-13T22:06:22.121Z,5.60
2022-11-13T22:09:19.122Z,5.50
2022-11-13T22:12:04.681Z,5.50
2022-11-13T22:14:49.976Z,5.40
2022-11-13T22:17:35.437Z,5.40
2022-11-13T22:20:21.045Z,5.30
2022-11-13T22:23:06.189Z,5.30
2022-11-13T22:25:55.757Z,5.30
2022-11-13T22:28:44.987Z,5.30
2022-11-13T22:31:31.544Z,5.30
2022-11-13T22:34:16.899Z,5.30
2022-11-13T22:37:02.323Z,5.20
2022-11-13T22:39:47.781Z,5.20
2022-11-13T22:42:33.195Z,5.10
2022-11-13T22:45:23.758Z,5.10
2022-11-13T22:48:12.586Z,5.10
2022-11-13T22:51:06.711Z,5.10
2022-11-13T22:53:56.999Z,5.00
2022-11-13T22:56:42.200Z,5.00
2022-11-13T22:59:27.854Z,5.00
2022-11-13T23:02:13.112Z,4.90
2022-11-13T23:04:58.497Z,4.90
2022-11-13T23:07:43.924Z,4.80
2022-11-13T23:10:29.320Z,4.80
2022-11-13T23:13:14.548Z,4.80
2022-11-13T23:16:01.571Z,4.70
2022-11-13T23:18:47.410Z,4.80
2022-11-13T23:21:33.074Z,4.80
2022-11-13T23:24:18.297Z,4.70
2022-11-13T23:27:03.874Z,4.70
2022-11-13T23:29:50.395Z,4.70
2022-11-13T23:32:35.923Z,4.70
2022-11-13T23:35:21.306Z,4.60
2022-11-13T23:38:07.199Z,4.60
2022-11-13T23:40:57.575Z,4.60
2022-11-13T23:46:48.135Z,4.60
2022-11-13T23:49:33.602Z,4.60
2022-11-13T23:52:19.030Z,4.60
2022-11-13T23:55:04.615Z,4.60
2022-11-13T23:58:02.745Z,4.60
